Time;durP1;ratioP1;P1;durP2;ratioP2;P2;SDS_P1;SDS_P2;PMS_P1;PMS_P2;Temp;Humidity;BMP_temperature;BMP_pressure;BME280_temperature;BME280_humidity;BME280_pressure;Samples;Min_cycle;Max_cycle;Signal;HPM_P1;HPM_P2
2022/12/31 00:00:08;;;;;;;0.00;0.00;;;;;;;9.25;100.00;98660.66;6180643;23;20087;-72
2022/12/31 00:02:33;;;;;;;0.00;0.00;;;;;;;9.22;100.00;98652.28;6212132;23;20375;-73
2022/12/31 00:04:59;;;;;;;0.00;0.00;;;;;;;9.18;100.00;98654.78;6210323;23;20062;-73
2022/12/31 00:07:24;;;;;;;0.00;0.00;;;;;;;9.21;100.00;98659.66;6184116;23;20138;-73
2022/12/31 00:09:50;;;;;;;0.00;0.00;;;;;;;9.16;100.00;98640.66;6182242;23;20026;-72
2022/12/31 00:12:15;;;;;;;0.10;0.10;;;;;;;9.14;100.00;98637.44;6181459;23;20043;-73
2022/12/31 00:14:41;;;;;;;0.00;0.00;;;;;;;9.10;100.00;98647.31;6158787;23;20059;-74
2022/12/31 00:17:06;;;;;;;0.00;0.00;;;;;;;9.04;100.00;98637.59;6158602;23;20008;-74
2022/12/31 00:19:31;;;;;;;0.00;0.00;;;;;;;8.97;100.00;98648.09;6204990;23;20432;-72
2022/12/31 00:21:57;;;;;;;0.00;0.00;;;;;;;8.94;100.00;98635.84;6208442;23;20005;-73
2022/12/31 00:24:22;;;;;;;0.08;0.08;;;;;;;8.93;100.00;98636.16;6181288;23;20008;-75
2022/12/31 00:26:48;;;;;;;0.00;0.00;;;;;;;8.90;100.00;98604.84;6208775;23;20024;-74
2022/12/31 00:29:13;;;;;;;0.00;0.00;;;;;;;8.89;100.00;98616.84;6203277;23;20143;-72
2022/12/31 00:31:39;;;;;;;0.10;0.10;;;;;;;8.86;100.00;98620.19;6184159;23;20030;-74
2022/12/31 00:34:05;;;;;;;0.00;0.00;;;;;;;8.82;100.00;98614.53;6209463;23;20005;-76
2022/12/31 00:36:46;;;;;;;0.00;0.00;;;;;;;8.87;100.00;98617.16;6182726;23;20099;-77
2022/12/31 00:39:12;;;;;;;0.00;0.00;;;;;;;8.70;100.00;98601.38;6211830;23;20050;-77
2022/12/31 00:41:37;;;;;;;0.00;0.00;;;;;;;8.71;100.00;98627.50;6182517;23;20008;-77
2022/12/31 00:44:03;;;;;;;0.10;0.10;;;;;;;8.65;100.00;98625.16;6210712;23;20011;-76
2022/12/31 00:46:28;;;;;;;0.10;0.10;;;;;;;8.64;100.00;98645.34;6208374;23;20007;-77
2022/12/31 00:48:54;;;;;;;0.00;0.00;;;;;;;8.65;100.00;98641.53;6183876;23;20015;-78
2022/12/31 00:51:21;;;;;;;0.00;0.00;;;;;;;8.69;100.00;98658.91;6182771;23;20004;-77
2022/12/31 00:53:47;;;;;;;0.00;0.00;;;;;;;8.64;100.00;98651.59;6210651;23;20019;-78
2022/12/31 00:56:18;;;;;;;0.00;0.00;;;;;;;8.69;100.00;98648.78;6213595;23;20079;-77
2022/12/31 00:58:47;;;;;;;0.00;0.00;;;;;;;8.75;100.00;98663.16;6211021;23;20020;-77
2022/12/31 01:01:18;;;;;;;0.00;0.00;;;;;;;8.73;100.00;98659.91;6211861;23;20438;-77
2022/12/31 01:03:56;;;;;;;0.00;0.00;;;;;;;8.77;100.00;98655.47;6207030;23;20427;-77
2022/12/31 01:06:22;;;;;;;0.00;0.00;;;;;;;8.71;100.00;98648.50;6211289;23;20012;-77
2022/12/31 01:08:49;;;;;;;0.10;0.10;;;;;;;8.64;100.00;98634.44;6208166;23;20141;-78
2022/12/31 01:11:27;;;;;;;0.00;0.00;;;;;;;8.68;100.00;98640.91;6187146;23;20012;-77
2022/12/31 01:13:59;;;;;;;0.00;0.00;;;;;;;8.60;100.00;98631.50;6186951;23;20055;-76
2022/12/31 01:16:30;;;;;;;0.10;0.10;;;;;;;8.48;100.00;98610.16;6210375;23;20000;-77
2022/12/31 01:19:03;;;;;;;0.00;0.00;;;;;;;8.59;100.00;98619.00;6208354;23;20080;-77
2022/12/31 01:21:30;;;;;;;0.08;0.08;;;;;;;8.56;100.00;98617.66;6208875;23;20039;-77
2022/12/31 01:23:56;;;;;;;0.00;0.00;;;;;;;8.42;100.00;98592.25;6210907;23;20328;-77
2022/12/31 01:26:22;;;;;;;0.00;0.00;;;;;;;8.49;100.00;98600.09;6208823;23;20080;-77
2022/12/31 01:28:47;;;;;;;0.00;0.00;;;;;;;8.41;100.00;98590.66;6160749;23;20048;-77
2022/12/31 01:31:16;;;;;;;0.00;0.00;;;;;;;8.48;100.00;98607.44;6206979;23;20004;-77
2022/12/31 01:33:42;;;;;;;0.00;0.00;;;;;;;8.48;100.00;98604.69;6210508;23;20241;-77
2022/12/31 01:36:12;;;;;;;0.10;0.10;;;;;;;8.50;100.00;98590.81;6207298;23;20360;-76
2022/12/31 01:38:45;;;;;;;0.00;0.00;;;;;;;8.52;100.00;98600.28;6212853;23;20005;-77
2022/12/31 01:41:19;;;;;;;0.10;0.10;;;;;;;8.44;100.00;98594.66;6206158;23;20012;-77
2022/12/31 01:43:49;;;;;;;0.05;0.05;;;;;;;8.55;100.00;98598.88;6210616;23;20004;-77
2022/12/31 01:46:26;;;;;;;0.00;0.00;;;;;;;8.44;100.00;98581.91;6206785;23;20016;-77
2022/12/31 01:48:56;;;;;;;0.00;0.00;;;;;;;8.37;100.00;98586.88;6208771;23;20031;-77
2022/12/31 01:51:24;;;;;;;0.00;0.00;;;;;;;8.29;100.00;98580.19;6208404;23;20015;-77
2022/12/31 01:53:50;;;;;;;0.00;0.00;;;;;;;8.39;100.00;98622.81;6207910;23;20004;-77
2022/12/31 01:56:26;;;;;;;0.05;0.05;;;;;;;8.27;100.00;98625.19;6209571;23;20020;-77
2022/12/31 01:58:59;;;;;;;0.00;0.00;;;;;;;8.32;100.00;98635.97;6209466;23;20063;-76
2022/12/31 02:01:31;;;;;;;0.00;0.00;;;;;;;8.26;100.00;98620.81;6210042;23;20005;-77
2022/12/31 02:03:58;;;;;;;0.00;0.00;;;;;;;8.35;100.00;98622.59;6209699;23;20123;-77
2022/12/31 02:06:31;;;;;;;0.00;0.00;;;;;;;8.36;100.00;98612.50;6211550;23;20009;-78
2022/12/31 02:08:57;;;;;;;0.10;0.10;;;;;;;8.46;100.00;98627.91;6208641;23;20008;-77
2022/12/31 02:11:36;;;;;;;0.10;0.10;;;;;;;8.59;100.00;98634.53;6212249;23;20023;-78
2022/12/31 02:14:20;;;;;;;0.00;0.00;;;;;;;8.60;100.00;98627.97;6208359;23;20428;-76
2022/12/31 02:16:46;;;;;;;0.00;0.00;;;;;;;8.65;100.00;98630.63;6211211;23;20007;-77
2022/12/31 02:19:31;;;;;;;0.00;0.00;;;;;;;8.61;100.00;98613.25;6208990;23;20009;-77
2022/12/31 02:22:08;;;;;;;0.00;0.00;;;;;;;8.57;100.00;98602.09;6209385;23;20017;-78
2022/12/31 02:25:00;;;;;;;0.05;0.05;;;;;;;8.70;100.00;98611.44;6205091;23;20076;-78
2022/12/31 02:27:47;;;;;;;0.10;0.10;;;;;;;8.70;100.00;98601.38;6209013;23;20031;-76
2022/12/31 02:30:33;;;;;;;0.00;0.00;;;;;;;8.68;100.00;98594.59;6208919;23;20087;-76
2022/12/31 02:33:08;;;;;;;0.00;0.00;;;;;;;8.69;100.00;98593.50;6208831;23;20070;-76
2022/12/31 02:35:47;;;;;;;0.00;0.00;;;;;;;8.68;100.00;98580.97;6205767;23;20011;-77
2022/12/31 02:38:19;;;;;;;0.10;0.10;;;;;;;8.65;100.00;98565.22;6210516;23;20028;-77
2022/12/31 02:40:46;;;;;;;0.00;0.00;;;;;;;8.57;100.00;98550.34;6207673;23;20042;-75
2022/12/31 02:43:11;;;;;;;0.10;0.10;;;;;;;8.73;100.00;98569.97;6210518;23;20431;-77
2022/12/31 02:45:41;;;;;;;0.00;0.00;;;;;;;8.80;100.00;98569.59;6156000;23;20011;-76
2022/12/31 02:48:15;;;;;;;0.00;0.00;;;;;;;8.84;100.00;98567.88;6211110;23;20458;-77
2022/12/31 02:50:55;;;;;;;0.05;0.05;;;;;;;8.91;100.00;98574.56;6207288;23;20001;-77
2022/12/31 02:54:02;;;;;;;0.00;0.00;;;;;;;9.02;100.00;98563.47;6209376;23;20011;-77
2022/12/31 02:56:41;;;;;;;0.00;0.00;;;;;;;8.94;100.00;98534.19;6209396;23;20008;-76
2022/12/31 03:02:18;;;;;;;0.00;0.00;;;;;;;9.28;100.00;98549.34;6209441;23;20011;-77
2022/12/31 03:04:51;;;;;;;0.00;0.00;;;;;;;9.34;100.00;98543.47;6209689;23;20166;-76
2022/12/31 03:07:30;;;;;;;0.05;0.05;;;;;;;9.40;100.00;98542.28;6207856;23;20001;-76
2022/12/31 03:09:56;;;;;;;0.00;0.00;;;;;;;9.44;100.00;98528.81;6206024;23;20009;-75
2022/12/31 03:15:19;;;;;;;0.00;0.00;;;;;;;9.58;100.00;98521.44;6210049;23;20016;-76
2022/12/31 03:17:55;;;;;;;0.10;0.10;;;;;;;9.60;100.00;98513.75;6207010;23;20012;-76
2022/12/31 03:23:17;;;;;;;0.00;0.00;;;;;;;9.71;100.00;98516.25;6207995;23;20058;-76
2022/12/31 03:25:46;;;;;;;0.00;0.00;;;;;;;9.74;100.00;98511.00;6209301;23;20012;-76
2022/12/31 03:28:14;;;;;;;0.03;0.03;;;;;;;9.71;100.00;98491.69;6205280;23;20005;-76
2022/12/31 03:30:43;;;;;;;0.00;0.00;;;;;;;9.85;100.00;98511.56;6210036;23;20710;-76
2022/12/31 03:33:08;;;;;;;0.00;0.00;;;;;;;9.76;100.00;98497.84;6204376;23;20008;-77
2022/12/31 03:35:38;;;;;;;0.00;0.00;;;;;;;9.89;100.00;98493.44;6184803;23;20005;-78
2022/12/31 03:38:07;;;;;;;0.00;0.00;;;;;;;9.99;100.00;98481.50;6185750;23;20008;-81
2022/12/31 03:40:37;;;;;;;0.10;0.10;;;;;;;10.15;100.00;98498.31;6211929;23;20095;-81
2022/12/31 03:43:05;;;;;;;0.00;0.00;;;;;;;10.22;100.00;98497.88;6215262;23;20058;-81
2022/12/31 03:45:31;;;;;;;0.05;0.05;;;;;;;10.24;100.00;98474.59;6212253;23;20001;-82
2022/12/31 03:47:56;;;;;;;0.10;0.10;;;;;;;10.34;100.00;98541.88;6187928;23;20011;-78
2022/12/31 03:50:22;;;;;;;0.00;0.00;;;;;;;10.51;100.00;98486.50;6183926;23;20132;-78
2022/12/31 03:52:47;;;;;;;0.00;0.00;;;;;;;10.67;100.00;98510.72;6161817;23;20024;-79
2022/12/31 03:55:13;;;;;;;0.00;0.00;;;;;;;10.71;100.00;98517.97;6186310;23;20009;-78
2022/12/31 03:57:39;;;;;;;0.10;0.10;;;;;;;10.71;100.00;98478.91;6211687;23;20379;-79
2022/12/31 04:00:07;;;;;;;0.00;0.00;;;;;;;10.88;100.00;98487.19;6213557;23;20062;-79
2022/12/31 04:02:33;;;;;;;0.10;0.10;;;;;;;10.79;100.00;98464.47;6208773;23;20018;-79
2022/12/31 04:05:01;;;;;;;0.10;0.10;;;;;;;10.92;100.00;98485.44;6211828;23;20122;-79
2022/12/31 04:07:38;;;;;;;0.00;0.00;;;;;;;10.95;100.00;98482.06;6161370;23;20016;-80
2022/12/31 04:10:23;;;;;;;0.00;0.00;;;;;;;10.89;100.00;98457.91;6212059;23;20017;-80
2022/12/31 04:12:48;;;;;;;0.00;0.00;;;;;;;10.98;100.00;98495.13;6210502;23;20000;-79
2022/12/31 04:15:18;;;;;;;0.10;0.10;;;;;;;11.11;100.00;98520.75;6214442;23;20380;-80
2022/12/31 04:17:43;;;;;;;0.00;0.00;;;;;;;11.08;100.00;98506.88;6212264;23;20024;-79
2022/12/31 04:20:09;;;;;;;0.00;0.00;;;;;;;11.08;100.00;98523.28;6211030;23;20459;-78
2022/12/31 04:22:38;;;;;;;0.00;0.00;;;;;;;11.12;100.00;98519.59;6210150;23;20000;-78
2022/12/31 04:25:09;;;;;;;0.10;0.10;;;;;;;11.20;100.00;98531.72;6159260;23;20011;-77
2022/12/31 04:27:36;;;;;;;0.00;0.00;;;;;;;11.18;100.00;98498.38;6185135;23;20424;-77
2022/12/31 04:30:04;;;;;;;0.00;0.00;;;;;;;11.21;100.00;98522.38;6185853;23;20082;-77
2022/12/31 04:32:35;;;;;;;0.10;0.10;;;;;;;11.26;100.00;98516.78;6183703;23;20000;-78
2022/12/31 04:35:00;;;;;;;0.00;0.00;;;;;;;11.25;100.00;98542.50;6183651;23;20019;-77
2022/12/31 04:37:26;;;;;;;0.00;0.00;;;;;;;11.33;100.00;98513.56;6211662;23;20004;-77
2022/12/31 04:39:53;;;;;;;0.10;0.10;;;;;;;11.35;100.00;98509.38;6212547;23;20008;-78
2022/12/31 04:42:19;;;;;;;0.10;0.10;;;;;;;11.35;100.00;98525.81;6208801;23;20011;-77
2022/12/31 04:44:44;;;;;;;0.00;0.00;;;;;;;11.36;100.00;98507.47;6187249;23;20008;-77
2022/12/31 04:47:10;;;;;;;0.00;0.00;;;;;;;11.43;100.00;98537.09;6209878;23;20000;-77
2022/12/31 04:49:35;;;;;;;0.00;0.00;;;;;;;11.35;100.00;98503.91;6212439;23;20061;-78
2022/12/31 04:52:00;;;;;;;0.10;0.10;;;;;;;11.42;100.00;98519.06;6209648;23;20106;-78
2022/12/31 04:54:26;;;;;;;0.10;0.10;;;;;;;11.37;100.00;98500.06;6162261;23;20004;-79
2022/12/31 04:56:51;;;;;;;0.00;0.00;;;;;;;11.44;100.00;98522.28;6214180;23;20012;-81
2022/12/31 04:59:17;;;;;;;0.00;0.00;;;;;;;11.42;100.00;98535.47;6212923;23;20463;-81
2022/12/31 05:01:42;;;;;;;0.00;0.00;;;;;;;11.41;100.00;98550.31;6216176;23;20431;-80
2022/12/31 05:04:08;;;;;;;0.00;0.00;;;;;;;11.40;100.00;98533.06;6210800;23;20840;-81
2022/12/31 05:06:33;;;;;;;0.00;0.00;;;;;;;11.38;100.00;98556.41;6190986;23;20008;-81
2022/12/31 05:08:59;;;;;;;0.00;0.00;;;;;;;11.47;100.00;98559.97;6163089;23;20015;-79
2022/12/31 05:11:24;;;;;;;0.00;0.00;;;;;;;11.39;100.00;98593.59;6188965;23;20367;-79
2022/12/31 05:13:50;;;;;;;0.00;0.00;;;;;;;11.34;100.00;98540.59;6214507;23;20011;-80
2022/12/31 05:16:25;;;;;;;;;;;;;;;;;;;;;
2022/12/31 05:19:09;;;;;;;0.00;0.00;;;;;;;11.44;100.00;98607.94;6216816;23;20088;-80
2022/12/31 05:21:34;;;;;;;0.00;0.00;;;;;;;11.24;100.00;98540.09;6216066;23;20521;-81
2022/12/31 05:24:00;;;;;;;0.10;0.10;;;;;;;11.39;100.00;98585.38;6214439;23;20004;-81
2022/12/31 05:26:25;;;;;;;0.00;0.00;;;;;;;11.44;100.00;98571.56;6187602;23;20139;-81
2022/12/31 05:28:51;;;;;;;0.00;0.00;;;;;;;11.41;100.00;98570.25;6164495;23;20021;-78
2022/12/31 05:31:16;;;;;;;0.10;0.10;;;;;;;11.46;100.00;98580.25;6186471;23;20009;-79
2022/12/31 05:33:41;;;;;;;0.00;0.00;;;;;;;11.49;100.00;98585.09;6212925;23;20435;-79
2022/12/31 05:36:07;;;;;;;0.03;0.03;;;;;;;11.49;100.00;98640.66;6164488;23;20375;-79
2022/12/31 05:38:32;;;;;;;0.05;0.05;;;;;;;11.49;100.00;98612.47;6185147;23;20100;-79
2022/12/31 05:41:06;;;;;;;0.00;0.00;;;;;;;11.50;100.00;98600.41;6212832;23;20005;-78
2022/12/31 05:43:34;;;;;;;0.00;0.00;;;;;;;11.44;100.00;98620.81;6212828;23;20004;-79
2022/12/31 05:46:16;;;;;;;;;;;;;;;;;;;;;
2022/12/31 05:48:41;;;;;;;0.00;0.00;;;;;;;11.30;100.00;98583.44;6212316;23;20484;-79
2022/12/31 05:51:07;;;;;;;0.00;0.00;;;;;;;11.24;100.00;98587.41;6188350;23;20044;-80
2022/12/31 05:53:33;;;;;;;0.00;0.00;;;;;;;11.18;100.00;98602.34;6211574;23;20005;-79
2022/12/31 05:55:58;;;;;;;0.00;0.00;;;;;;;11.18;100.00;98586.75;6164154;23;20008;-79
2022/12/31 05:58:24;;;;;;;0.00;0.00;;;;;;;11.23;100.00;98591.28;6188728;23;20008;-80
2022/12/31 06:00:51;;;;;;;0.00;0.00;;;;;;;11.34;100.00;98591.78;6185925;23;20033;-79
2022/12/31 06:03:16;;;;;;;0.00;0.00;;;;;;;11.48;100.00;98619.06;6215542;23;20015;-81
2022/12/31 06:05:42;;;;;;;0.00;0.00;;;;;;;11.35;100.00;98613.38;6210203;23;20088;-76
2022/12/31 06:08:09;;;;;;;0.10;0.10;;;;;;;11.22;100.00;98625.22;6211199;23;20723;-76
2022/12/31 06:10:34;;;;;;;0.00;0.00;;;;;;;11.16;100.00;98613.59;6210713;23;20083;-77
2022/12/31 06:12:59;;;;;;;0.10;0.10;;;;;;;11.17;100.00;98626.16;6161517;23;20040;-77
2022/12/31 06:15:25;;;;;;;0.00;0.00;;;;;;;11.20;100.00;98622.00;6162739;23;20040;-77
2022/12/31 06:17:50;;;;;;;0.00;0.00;;;;;;;11.24;100.00;98639.38;6184900;23;20362;-76
2022/12/31 06:20:16;;;;;;;0.00;0.00;;;;;;;11.23;100.00;98632.31;6162014;23;20016;-77
2022/12/31 06:22:41;;;;;;;0.00;0.00;;;;;;;11.27;100.00;98636.06;6208973;23;20012;-78
2022/12/31 06:25:07;;;;;;;0.00;0.00;;;;;;;11.27;100.00;98611.44;6211541;23;20425;-78
2022/12/31 06:27:32;;;;;;;0.10;0.10;;;;;;;11.30;100.00;98643.63;6185895;23;20005;-77
2022/12/31 06:29:58;;;;;;;0.00;0.00;;;;;;;11.20;100.00;98632.94;6161956;23;20066;-77
2022/12/31 06:32:23;;;;;;;0.00;0.00;;;;;;;11.28;100.00;98639.59;6187246;23;20087;-77
2022/12/31 06:34:51;;;;;;;0.00;0.00;;;;;;;11.26;100.00;98628.16;6183649;23;20007;-78
2022/12/31 06:37:17;;;;;;;0.03;0.03;;;;;;;11.32;100.00;98659.72;6190199;23;20015;-77
2022/12/31 06:39:42;;;;;;;0.10;0.10;;;;;;;11.30;100.00;98661.94;6217140;23;20091;-76
2022/12/31 06:42:08;;;;;;;0.00;0.00;;;;;;;11.28;100.00;98654.06;6162223;23;20055;-75
2022/12/31 06:44:33;;;;;;;0.10;0.10;;;;;;;11.31;100.00;98661.63;6165058;23;20133;-76
2022/12/31 06:47:01;;;;;;;0.05;0.05;;;;;;;11.21;100.00;98623.59;6209938;23;20001;-76
2022/12/31 06:49:29;;;;;;;0.00;0.00;;;;;;;11.25;100.00;98668.38;6211879;23;20134;-77
2022/12/31 06:51:54;;;;;;;0.10;0.10;;;;;;;11.30;100.00;98684.66;6182843;23;20015;-76
2022/12/31 06:54:20;;;;;;;0.00;0.00;;;;;;;11.32;100.00;98674.22;6160224;23;20024;-78
2022/12/31 06:56:45;;;;;;;0.00;0.00;;;;;;;11.27;100.00;98649.72;6187401;23;20005;-77
2022/12/31 06:59:24;;;;;;;0.10;0.10;;;;;;;11.29;100.00;98652.94;6184369;23;20012;-77
2022/12/31 07:02:22;;;;;;;0.00;0.00;;;;;;;11.33;100.00;98672.28;6212623;23;20013;-78
2022/12/31 07:05:09;;;;;;;0.08;0.08;;;;;;;11.26;100.00;98666.47;6182811;23;20008;-78
2022/12/31 07:07:59;;;;;;;0.00;0.00;;;;;;;11.22;100.00;98658.06;6209724;23;20031;-80
2022/12/31 07:10:58;;;;;;;0.00;0.00;;;;;;;11.41;100.00;98695.34;6212516;23;20008;-80
2022/12/31 07:13:46;;;;;;;0.00;0.00;;;;;;;11.49;100.00;98705.53;6211601;23;20008;-78
2022/12/31 07:16:33;;;;;;;0.00;0.00;;;;;;;11.52;100.00;98710.38;6209409;23;20087;-78
2022/12/31 07:18:58;;;;;;;0.00;0.00;;;;;;;11.51;100.00;98690.41;6212286;23;19992;-79
2022/12/31 07:21:36;;;;;;;0.00;0.00;;;;;;;11.47;100.00;98685.88;6211365;23;20020;-80
2022/12/31 07:24:04;;;;;;;0.00;0.00;;;;;;;11.43;100.00;98685.69;6214648;23;20015;-81
2022/12/31 07:27:20;;;;;;;0.00;0.00;;;;;;;11.54;100.00;98710.88;6212784;23;20001;-81
2022/12/31 07:29:58;;;;;;;;;;;;;;;;;;;;;
2022/12/31 07:32:41;;;;;;;0.00;0.00;;;;;;;11.40;100.00;98752.00;6216510;23;20027;-81
2022/12/31 07:35:37;;;;;;;0.00;0.00;;;;;;;11.46;100.00;98739.00;6210062;23;20059;-80
2022/12/31 07:38:24;;;;;;;0.00;0.00;;;;;;;11.39;100.00;98725.78;6216160;23;20005;-81
2022/12/31 07:41:06;;;;;;;0.08;0.08;;;;;;;11.29;100.00;98736.97;6214891;23;20004;-80
2022/12/31 07:43:59;;;;;;;0.00;0.00;;;;;;;11.37;100.00;98757.31;6210356;23;20017;-81
2022/12/31 07:46:49;;;;;;;0.00;0.00;;;;;;;11.25;100.00;98731.31;6214605;23;20331;-81
2022/12/31 07:49:36;;;;;;;0.00;0.00;;;;;;;11.18;100.00;98750.91;6214433;23;20067;-80
2022/12/31 07:52:16;;;;;;;0.00;0.00;;;;;;;11.14;100.00;98716.25;6188761;23;20012;-77
2022/12/31 07:54:41;;;;;;;0.00;0.00;;;;;;;11.18;100.00;98755.56;6210734;23;20573;-78
2022/12/31 07:57:10;;;;;;;0.00;0.00;;;;;;;11.23;100.00;98792.91;6209333;23;19997;-78
2022/12/31 07:59:56;;;;;;;0.00;0.00;;;;;;;11.23;100.00;98751.88;6212342;23;20498;-78
2022/12/31 08:03:00;;;;;;;0.00;0.00;;;;;;;11.25;100.00;98777.81;6210625;23;20110;-78
2022/12/31 08:05:30;;;;;;;0.00;0.00;;;;;;;11.20;100.00;98769.75;6210384;23;20015;-77
2022/12/31 08:08:23;;;;;;;0.00;0.00;;;;;;;11.24;100.00;98795.34;6212721;23;20000;-76
2022/12/31 08:11:24;;;;;;;0.00;0.00;;;;;;;11.13;100.00;98770.16;6208707;23;20028;-78
2022/12/31 08:13:52;;;;;;;0.05;0.05;;;;;;;11.19;100.00;98779.06;6207518;23;20432;-76
2022/12/31 08:16:18;;;;;;;0.00;0.00;;;;;;;11.11;100.00;98788.84;6205124;23;20416;-78
2022/12/31 08:18:46;;;;;;;0.00;0.00;;;;;;;11.14;100.00;98798.31;6217468;23;20051;-76
2022/12/31 08:21:47;;;;;;;0.00;0.00;;;;;;;11.12;100.00;98803.31;6211337;23;20016;-77
2022/12/31 08:24:34;;;;;;;0.00;0.00;;;;;;;11.12;100.00;98806.03;6210750;23;20337;-77
2022/12/31 08:27:22;;;;;;;0.00;0.00;;;;;;;11.16;100.00;98801.56;6215267;23;20004;-77
2022/12/31 08:30:13;;;;;;;0.00;0.00;;;;;;;11.09;100.00;98795.72;6211260;23;20008;-79
2022/12/31 08:33:11;;;;;;;0.00;0.00;;;;;;;11.09;100.00;98796.53;6189995;23;20011;-77
2022/12/31 08:36:08;;;;;;;0.00;0.00;;;;;;;11.11;100.00;98799.78;6213775;23;20390;-77
2022/12/31 08:38:46;;;;;;;0.00;0.00;;;;;;;11.07;100.00;98812.44;6212267;23;20078;-79
2022/12/31 08:41:34;;;;;;;0.10;0.10;;;;;;;11.15;100.00;98833.59;6214286;23;20009;-76
2022/12/31 08:44:05;;;;;;;0.00;0.00;;;;;;;11.15;100.00;98824.56;6211219;23;20016;-77
2022/12/31 08:46:49;;;;;;;0.00;0.00;;;;;;;11.00;100.00;98793.72;6213508;23;20012;-77
2022/12/31 08:49:18;;;;;;;0.00;0.00;;;;;;;11.08;100.00;98818.72;6211668;23;20112;-76
2022/12/31 08:51:46;;;;;;;0.00;0.00;;;;;;;10.98;100.00;98795.13;6211832;23;20013;-77
2022/12/31 08:54:17;;;;;;;0.10;0.10;;;;;;;10.99;100.00;98816.72;6211296;23;20334;-78
2022/12/31 08:57:32;;;;;;;;;;;;;;;;;;;;;
2022/12/31 09:00:21;;;;;;;0.00;0.00;;;;;;;11.06;100.00;98823.69;6208339;23;20008;-80
2022/12/31 09:03:38;;;;;;;;;;;;;;;;;;;;;
2022/12/31 09:06:04;;;;;;;0.00;0.00;;;;;;;11.06;100.00;98851.06;6212456;23;20063;-80
2022/12/31 09:12:36;;;;;;;0.10;0.10;;;;;;;11.08;100.00;98835.13;6208081;23;20008;-80
2022/12/31 09:15:19;;;;;;;0.00;0.00;;;;;;;11.09;100.00;98818.41;6212854;23;20005;-80
2022/12/31 09:17:47;;;;;;;0.00;0.00;;;;;;;11.01;100.00;98805.47;6212054;23;20114;-79
2022/12/31 09:20:32;;;;;;;0.00;0.00;;;;;;;11.13;100.00;98835.03;6211552;23;20021;-79
2022/12/31 09:23:06;;;;;;;0.10;0.10;;;;;;;11.07;100.00;98797.94;6208823;23;20551;-79
2022/12/31 09:26:29;;;;;;;;;;;;;;;;;;;;;
2022/12/31 09:29:30;;;;;;;0.10;0.10;;;;;;;11.06;100.00;98799.09;6179030;23;20368;-77
2022/12/31 09:39:36;;;;;;;;;;;;;;;;;;;;;
2022/12/31 09:43:07;;;;;;;;;;;;;;;;;;;;;
2022/12/31 09:46:27;;;;;;;0.00;0.00;;;;;;;11.05;100.00;98784.56;6209030;23;20063;-78
2022/12/31 09:49:12;;;;;;;0.00;0.00;;;;;;;11.09;100.00;98790.25;6205142;23;20016;-78
2022/12/31 09:55:39;;;;;;;0.10;0.10;;;;;;;11.16;100.00;98791.44;6117263;23;20017;-76
2022/12/31 10:12:32;;;;;;;0.00;0.00;;;;;;;11.28;100.00;98788.13;6087031;23;19946;-78
2022/12/31 10:23:34;;;;;;;;;;;;;;;;;;;;;
2022/12/31 10:36:59;;;;;;;0.10;0.10;;;;;;;11.28;100.00;98812.75;5923111;24;20027;-77
2022/12/31 10:43:39;;;;;;;0.00;0.00;;;;;;;11.23;100.00;98812.91;5991497;23;20026;-79
2022/12/31 10:46:31;;;;;;;0.00;0.00;;;;;;;11.17;100.00;98808.69;6036329;23;20011;-76
2022/12/31 10:50:01;;;;;;;;;;;;;;;;;;;;;
2022/12/31 10:52:50;;;;;;;0.00;0.00;;;;;;;10.99;100.00;98803.06;6142218;23;20095;-79
2022/12/31 10:55:53;;;;;;;0.00;0.00;;;;;;;11.09;100.00;98825.81;6154645;23;20080;-77
2022/12/31 10:59:09;;;;;;;;;;;;;;;;;;;;;
2022/12/31 11:05:43;;;;;;;;;;;;;;;;;;;;;
2022/12/31 11:08:36;;;;;;;0.00;0.00;;;;;;;11.00;100.00;98801.91;6181287;23;20083;-77
2022/12/31 11:11:48;;;;;;;0.00;0.00;;;;;;;11.02;100.00;98806.28;6151886;23;20092;-78
2022/12/31 11:14:51;;;;;;;;;;;;;;;;;;;;;
2022/12/31 11:31:39;;;;;;;0.00;0.00;;;;;;;10.92;100.00;98789.00;6174320;23;20411;-75
2022/12/31 11:34:47;;;;;;;0.00;0.00;;;;;;;11.07;100.00;98806.16;6180112;23;20378;-77
2022/12/31 11:37:26;;;;;;;0.00;0.00;;;;;;;11.07;100.00;98797.94;6173801;23;20016;-77
2022/12/31 11:43:53;;;;;;;;;;;;;;;;;;;;;
2022/12/31 11:47:01;;;;;;;;;;;;;;;;;;;;;
2022/12/31 11:49:39;;;;;;;0.00;0.00;;;;;;;11.18;100.00;98777.44;6161794;23;20749;-77
2022/12/31 11:52:57;;;;;;;0.10;0.10;;;;;;;11.20;100.00;98777.13;6153538;23;20012;-78
2022/12/31 11:55:35;;;;;;;0.00;0.00;;;;;;;11.20;100.00;98763.44;6148336;23;20813;-79
2022/12/31 11:58:10;;;;;;;0.10;0.10;;;;;;;11.04;100.00;98739.22;6182635;23;20005;-78
2022/12/31 12:00:52;;;;;;;0.00;0.00;;;;;;;11.06;100.00;98733.44;6179861;23;20005;-85
2022/12/31 12:03:39;;;;;;;;;;;;;;;;;;;;;
2022/12/31 12:06:10;;;;;;;0.00;0.00;;;;;;;11.13;100.00;98714.66;6184647;23;20655;-80
2022/12/31 12:08:36;;;;;;;0.00;0.00;;;;;;;11.17;100.00;98732.06;6157892;23;20017;-81
2022/12/31 12:11:17;;;;;;;;;;;;;;;;;;;;;
2022/12/31 12:13:46;;;;;;;0.00;0.00;;;;;;;11.17;100.00;98715.66;6185440;23;20048;-84
2022/12/31 12:16:27;;;;;;;0.00;0.00;;;;;;;11.18;100.00;98709.03;6185062;23;20001;-82
2022/12/31 12:19:26;;;;;;;0.10;0.10;;;;;;;11.09;100.00;98719.94;6159616;23;20027;-81
2022/12/31 12:21:53;;;;;;;0.00;0.00;;;;;;;11.14;100.00;98708.88;6184667;23;20036;-81
2022/12/31 12:24:39;;;;;;;0.00;0.00;;;;;;;11.18;100.00;98718.09;6131064;23;20013;-80
2022/12/31 12:27:22;;;;;;;0.00;0.00;;;;;;;11.15;100.00;98704.19;6213505;23;20051;-81
2022/12/31 12:29:48;;;;;;;0.00;0.00;;;;;;;11.09;100.00;98706.25;6186929;23;20021;-81
2022/12/31 12:32:17;;;;;;;0.00;0.00;;;;;;;11.22;100.00;98717.44;6190877;23;20008;-81
2022/12/31 12:34:43;;;;;;;0.00;0.00;;;;;;;11.11;100.00;98709.50;6188350;23;20012;-81
2022/12/31 12:37:31;;;;;;;0.00;0.00;;;;;;;11.15;100.00;98723.34;6188246;23;20001;-80
2022/12/31 12:40:09;;;;;;;0.00;0.00;;;;;;;11.07;100.00;98719.44;6188796;23;20008;-81
2022/12/31 12:42:49;;;;;;;0.00;0.00;;;;;;;11.10;100.00;98687.94;6191756;23;20004;-80
2022/12/31 12:45:21;;;;;;;0.10;0.10;;;;;;;11.17;100.00;98694.56;6189294;23;20058;-81
2022/12/31 12:47:55;;;;;;;0.00;0.00;;;;;;;11.10;100.00;98698.88;6192008;23;20036;-80
2022/12/31 12:50:35;;;;;;;0.00;0.00;;;;;;;11.05;100.00;98685.31;6189361;23;20072;-81
2022/12/31 12:53:04;;;;;;;0.00;0.00;;;;;;;11.10;100.00;98701.59;6219412;23;19996;-81
2022/12/31 12:55:55;;;;;;;0.00;0.00;;;;;;;11.08;100.00;98703.81;6187201;23;20004;-80
2022/12/31 12:58:41;;;;;;;0.00;0.00;;;;;;;11.07;100.00;98688.53;6195455;23;20004;-78
2022/12/31 13:01:34;;;;;;;0.00;0.00;;;;;;;11.11;100.00;98697.72;6204008;23;20004;-79
2022/12/31 13:04:24;;;;;;;0.10;0.10;;;;;;;11.13;100.00;98679.09;6200156;23;20035;-78
2022/12/31 13:07:16;;;;;;;0.00;0.00;;;;;;;11.09;100.00;98680.84;6217824;23;20100;-79
2022/12/31 13:10:04;;;;;;;0.00;0.00;;;;;;;11.05;100.00;98657.94;6192347;23;20321;-80
2022/12/31 13:13:04;;;;;;;0.00;0.00;;;;;;;11.09;100.00;98642.53;6189916;23;20348;-79
2022/12/31 13:15:41;;;;;;;0.08;0.08;;;;;;;11.14;100.00;98683.44;6183636;23;20035;-79
2022/12/31 13:18:15;;;;;;;0.10;0.10;;;;;;;11.17;100.00;98705.50;6187375;23;20005;-79
2022/12/31 13:20:48;;;;;;;0.00;0.00;;;;;;;11.20;100.00;98643.91;6183837;23;20027;-78
2022/12/31 13:23:49;;;;;;;0.00;0.00;;;;;;;11.23;100.00;98654.22;6186596;23;20050;-78
2022/12/31 13:26:22;;;;;;;0.10;0.10;;;;;;;11.21;100.00;98639.22;6198918;23;20024;-78
2022/12/31 13:28:51;;;;;;;0.00;0.00;;;;;;;11.18;100.00;98654.31;6212414;23;20008;-78
2022/12/31 13:31:30;;;;;;;0.00;0.00;;;;;;;11.02;100.00;98601.16;6209038;23;20078;-79
2022/12/31 13:34:03;;;;;;;0.00;0.00;;;;;;;11.06;100.00;98643.16;6207620;23;20011;-76
2022/12/31 13:36:38;;;;;;;0.00;0.00;;;;;;;11.06;100.00;98615.81;6204478;23;20004;-76
2022/12/31 13:39:11;;;;;;;0.00;0.00;;;;;;;11.06;100.00;98622.09;6210102;23;20004;-76
2022/12/31 13:41:51;;;;;;;0.10;0.10;;;;;;;11.10;100.00;98631.28;6202873;23;20007;-77
2022/12/31 13:44:31;;;;;;;0.00;0.00;;;;;;;11.12;100.00;98625.50;6207931;23;20009;-77
2022/12/31 13:47:39;;;;;;;0.00;0.00;;;;;;;11.11;100.00;98682.16;6209476;23;20040;-76
2022/12/31 13:50:32;;;;;;;0.00;0.00;;;;;;;11.09;100.00;98620.66;6206510;23;20008;-77
2022/12/31 13:54:02;;;;;;;0.00;0.00;;;;;;;11.08;100.00;98625.31;6199444;23;20095;-78